createdAt,value
2019-05-17T00:00:16.747Z,7.45
2019-05-17T00:01:16.631Z,7.41
2019-05-17T00:02:17.336Z,7.41
2019-05-17T00:03:16.895Z,7.38
2019-05-17T00:04:16.607Z,7.40
2019-05-17T00:05:17.516Z,7.42
2019-05-17T00:06:16.875Z,7.41
2019-05-17T00:07:16.731Z,7.52
2019-05-17T00:08:16.459Z,7.52
2019-05-17T00:09:17.574Z,7.38
2019-05-17T00:10:17.042Z,7.31
2019-05-17T00:11:16.803Z,7.37
2019-05-17T00:12:16.592Z,7.29
2019-05-17T00:13:17.235Z,7.29
2019-05-17T00:14:16.759Z,7.42
2019-05-17T00:15:16.908Z,7.35
2019-05-17T00:16:17.272Z,7.40
2019-05-17T00:17:17.175Z,7.34
2019-05-17T00:18:16.960Z,7.38
2019-05-17T00:19:16.834Z,7.50
2019-05-17T00:20:17.063Z,7.45
2019-05-17T00:21:16.851Z,7.38
2019-05-17T00:22:16.683Z,7.41
2019-05-17T00:23:17.234Z,7.45
2019-05-17T00:24:14.745Z,7.34
2019-05-17T00:25:16.646Z,7.50
2019-05-17T00:26:16.410Z,7.50
2019-05-17T00:27:17.086Z,7.32
2019-05-17T00:28:16.450Z,7.35
2019-05-17T00:29:14.695Z,7.45
2019-05-17T00:30:17.294Z,7.31
2019-05-17T00:31:17.009Z,7.32
2019-05-17T00:32:17.024Z,7.29
2019-05-17T00:33:16.782Z,7.32
2019-05-17T00:34:16.584Z,7.32
2019-05-17T00:35:14.632Z,7.23
2019-05-17T00:36:14.615Z,7.23
2019-05-17T00:37:14.603Z,7.15
2019-05-17T00:38:16.742Z,7.20
2019-05-17T00:39:16.656Z,7.20
2019-05-17T00:40:16.641Z,7.15
2019-05-17T00:41:14.559Z,7.17
2019-05-17T00:42:16.835Z,7.26
2019-05-17T00:43:16.738Z,7.17
2019-05-17T00:44:16.597Z,7.15
2019-05-17T00:45:14.523Z,7.16
2019-05-17T00:46:14.504Z,7.15
2019-05-17T00:47:14.493Z,7.05
2019-05-17T00:48:16.936Z,6.97
2019-05-17T00:49:16.900Z,6.94
2019-05-17T00:50:16.783Z,6.99
2019-05-17T00:51:16.554Z,7.02
2019-05-17T00:52:16.539Z,7.02
2019-05-17T00:53:16.368Z,7.04
2019-05-17T00:54:14.418Z,7.05
2019-05-17T00:55:14.418Z,7.15
2019-05-17T00:56:14.395Z,7.13
2019-05-17T00:57:16.472Z,7.16
2019-05-17T00:58:14.374Z,7.15
2019-05-17T00:59:16.828Z,7.12
2019-05-17T01:00:16.879Z,7.07
2019-05-17T01:01:16.405Z,7.02
2019-05-17T01:02:16.178Z,7.07
2019-05-17T01:03:16.276Z,6.99
2019-05-17T01:04:14.309Z,6.97
2019-05-17T01:05:14.307Z,6.94
2019-05-17T01:06:14.285Z,6.90
2019-05-17T01:07:14.276Z,6.90
2019-05-17T01:08:14.270Z,6.80
2019-05-17T01:09:16.810Z,6.97
2019-05-17T01:10:16.508Z,6.91
2019-05-17T01:11:16.394Z,6.86
2019-05-17T01:12:16.337Z,6.94
2019-05-17T01:13:14.209Z,6.90
2019-05-17T01:14:14.199Z,6.91
2019-05-17T01:15:16.572Z,6.80
2019-05-17T01:16:16.505Z,6.89
2019-05-17T01:17:16.400Z,6.84
2019-05-17T01:18:16.128Z,6.89
2019-05-17T01:19:16.235Z,6.95
2019-05-17T01:20:14.145Z,6.84
2019-05-17T01:21:14.123Z,6.87
2019-05-17T01:22:14.112Z,6.89
2019-05-17T01:23:14.101Z,6.91
2019-05-17T01:24:14.090Z,6.87
2019-05-17T01:25:14.093Z,6.81
2019-05-17T01:26:14.070Z,6.94
2019-05-17T01:27:14.059Z,6.98
2019-05-17T01:28:16.292Z,6.94
2019-05-17T01:29:14.035Z,6.90
2019-05-17T01:30:14.059Z,6.80
2019-05-17T01:31:14.016Z,6.90
2019-05-17T01:32:14.015Z,6.81
2019-05-17T01:33:13.993Z,6.77
2019-05-17T01:34:16.470Z,6.76
2019-05-17T01:35:16.495Z,6.81
2019-05-17T01:36:13.972Z,6.83
2019-05-17T01:37:13.956Z,6.76
2019-05-17T01:38:13.939Z,6.81
2019-05-17T01:39:17.950Z,6.86
2019-05-17T01:40:17.318Z,6.83
2019-05-17T01:41:13.915Z,6.89
2019-05-17T01:42:13.951Z,6.77
2019-05-17T01:43:13.884Z,6.81
2019-05-17T01:44:13.879Z,6.86
2019-05-17T01:45:13.864Z,6.89
2019-05-17T01:46:13.860Z,6.94
2019-05-17T01:47:13.842Z,6.81
2019-05-17T01:48:13.829Z,6.98
2019-05-17T01:49:16.279Z,6.87
2019-05-17T01:50:13.809Z,6.90
2019-05-17T01:51:13.806Z,7.02
2019-05-17T01:52:13.788Z,7.04
2019-05-17T01:53:13.777Z,6.95
2019-05-17T01:54:13.765Z,6.99
2019-05-17T01:55:13.757Z,7.04
2019-05-17T01:56:13.751Z,7.04
2019-05-17T01:57:13.733Z,6.99
2019-05-17T01:58:13.721Z,7.08
2019-05-17T01:59:13.712Z,7.05
2019-05-17T02:00:13.703Z,7.08
2019-05-17T02:01:13.697Z,7.08
2019-05-17T02:02:13.677Z,7.16
2019-05-17T02:03:13.671Z,7.12
2019-05-17T02:04:13.657Z,7.12
2019-05-17T02:05:13.649Z,7.15
2019-05-17T02:06:13.642Z,7.12
2019-05-17T02:07:13.624Z,7.13
2019-05-17T02:08:13.614Z,7.04
2019-05-17T02:09:13.606Z,7.15
2019-05-17T02:10:13.779Z,7.16
2019-05-17T02:11:13.591Z,7.13
2019-05-17T02:12:13.568Z,7.04
2019-05-17T02:13:13.556Z,7.09
2019-05-17T02:14:13.546Z,7.15
2019-05-17T02:15:13.535Z,7.17
2019-05-17T02:16:13.532Z,7.16
2019-05-17T02:17:13.513Z,7.16
2019-05-17T02:18:13.505Z,7.08
2019-05-17T02:19:13.496Z,6.99
2019-05-17T02:20:13.480Z,6.99
2019-05-17T02:21:13.479Z,7.09
2019-05-17T02:22:13.460Z,6.98
2019-05-17T02:23:13.451Z,6.99
2019-05-17T02:24:13.436Z,7.07
2019-05-17T02:25:13.427Z,7.09
2019-05-17T02:26:13.424Z,7.13
2019-05-17T02:27:13.404Z,7.20
2019-05-17T02:28:13.395Z,7.08
2019-05-17T02:29:13.382Z,7.13
2019-05-17T02:30:14.379Z,7.13
2019-05-17T02:31:13.567Z,7.17
2019-05-17T02:32:13.350Z,7.13
2019-05-17T02:33:13.340Z,7.15
2019-05-17T02:34:14.117Z,7.16
2019-05-17T02:35:14.693Z,7.17
2019-05-17T02:36:14.124Z,7.13
2019-05-17T02:37:13.734Z,7.15
2019-05-17T02:38:13.469Z,7.20
2019-05-17T02:39:13.385Z,7.19
2019-05-17T02:40:14.611Z,7.17
2019-05-17T02:41:14.167Z,7.13
2019-05-17T02:42:13.903Z,7.16
2019-05-17T02:43:13.468Z,7.19
2019-05-17T02:44:13.340Z,7.15
2019-05-17T02:45:13.646Z,7.20
2019-05-17T02:46:13.806Z,7.15
2019-05-17T02:47:13.448Z,7.20
2019-05-17T02:48:13.596Z,7.15
2019-05-17T02:49:13.848Z,7.15
2019-05-17T02:50:13.557Z,7.19
2019-05-17T02:51:13.431Z,7.13
2019-05-17T02:52:13.141Z,7.16
2019-05-17T02:53:13.351Z,7.09
2019-05-17T02:54:13.460Z,7.15
2019-05-17T02:55:13.446Z,6.99
2019-05-17T02:56:13.713Z,7.04
2019-05-17T02:57:14.199Z,7.01
2019-05-17T02:58:13.071Z,6.99
2019-05-17T02:59:13.535Z,7.02
2019-05-17T03:00:13.835Z,7.05
2019-05-17T03:01:13.065Z,7.02
2019-05-17T03:02:13.030Z,6.95
2019-05-17T03:03:13.603Z,7.07
2019-05-17T03:04:13.208Z,6.94
2019-05-17T03:05:13.206Z,7.04
2019-05-17T03:06:13.646Z,7.02
2019-05-17T03:07:13.742Z,6.97
2019-05-17T03:08:12.957Z,6.98
2019-05-17T03:09:12.947Z,6.83
2019-05-17T03:10:22.924Z,6.90
2019-05-17T03:11:13.924Z,6.83
2019-05-17T03:12:13.174Z,6.79
2019-05-17T03:13:17.148Z,6.79
2019-05-17T03:14:13.891Z,6.73
2019-05-17T03:15:13.235Z,6.73
2019-05-17T03:16:14.670Z,6.63
2019-05-17T03:17:14.009Z,6.59
2019-05-17T03:18:13.482Z,6.61
2019-05-17T03:19:13.266Z,6.56
2019-05-17T03:20:13.392Z,6.62
2019-05-17T03:21:13.519Z,6.62
2019-05-17T03:22:13.266Z,6.63
2019-05-17T03:23:12.918Z,6.58
2019-05-17T03:24:13.673Z,6.61
2019-05-17T03:25:13.889Z,6.54
2019-05-17T03:26:13.362Z,6.50
2019-05-17T03:27:13.666Z,6.62
2019-05-17T03:28:13.524Z,6.62
2019-05-17T03:29:13.745Z,6.61
2019-05-17T03:30:17.177Z,6.63
2019-05-17T03:31:16.767Z,6.62
2019-05-17T03:32:17.412Z,6.66
2019-05-17T03:33:15.999Z,6.71
2019-05-17T03:34:16.772Z,6.77
2019-05-17T03:35:16.583Z,6.76
2019-05-17T03:36:17.041Z,6.79
2019-05-17T03:37:15.934Z,6.94
2019-05-17T03:38:14.124Z,6.91
2019-05-17T03:39:13.094Z,6.87
2019-05-17T03:40:27.381Z,6.97
2019-05-17T03:41:23.179Z,6.95
2019-05-17T03:42:13.590Z,6.98
2019-05-17T03:43:13.805Z,6.86
2019-05-17T03:44:13.595Z,7.01
2019-05-17T03:45:13.821Z,6.90
2019-05-17T03:46:13.944Z,6.98
2019-05-17T03:47:13.184Z,6.99
2019-05-17T03:48:13.029Z,6.98
2019-05-17T03:49:13.183Z,7.02
2019-05-17T03:50:13.651Z,7.05
2019-05-17T03:51:13.151Z,7.01
2019-05-17T03:52:13.611Z,7.07
2019-05-17T03:53:13.113Z,7.15
2019-05-17T03:54:13.841Z,7.17
2019-05-17T03:55:13.336Z,7.13
2019-05-17T03:56:13.351Z,7.08
2019-05-17T03:57:13.376Z,7.15
2019-05-17T03:58:12.808Z,7.07
2019-05-17T03:59:13.116Z,7.12
2019-05-17T04:00:13.396Z,7.05
2019-05-17T04:01:14.158Z,7.12
2019-05-17T04:02:12.529Z,7.12
2019-05-17T04:03:13.618Z,7.16
2019-05-17T04:04:13.349Z,7.20
2019-05-17T04:05:12.856Z,7.23
2019-05-17T04:06:13.254Z,7.26
2019-05-17T04:07:12.902Z,7.17
2019-05-17T04:08:13.984Z,6.99
2019-05-17T04:09:13.800Z,6.90
2019-05-17T04:10:14.999Z,6.81
2019-05-17T04:11:22.291Z,6.66
2019-05-17T04:12:13.709Z,6.56
2019-05-17T04:13:13.034Z,6.59
2019-05-17T04:14:13.937Z,6.48
2019-05-17T04:15:13.310Z,6.63
2019-05-17T04:16:13.874Z,6.86
2019-05-17T04:17:13.117Z,6.95
2019-05-17T04:18:13.066Z,7.01
2019-05-17T04:19:13.927Z,7.17
2019-05-17T04:20:13.515Z,7.32
2019-05-17T04:21:12.617Z,7.45
2019-05-17T04:22:13.790Z,7.84
2019-05-17T04:23:12.871Z,8.15
2019-05-17T04:24:12.909Z,8.22
2019-05-17T04:25:13.454Z,8.57
2019-05-17T04:26:13.512Z,8.93
2019-05-17T04:27:13.559Z,9.16
2019-05-17T04:28:13.679Z,9.53
2019-05-17T04:29:13.566Z,9.60
2019-05-17T04:30:12.677Z,9.82
2019-05-17T04:31:13.384Z,9.78
2019-05-17T04:32:13.021Z,9.75
2019-05-17T04:33:12.829Z,10.04
2019-05-17T04:34:13.526Z,10.42
2019-05-17T04:35:13.027Z,10.86
2019-05-17T04:36:13.061Z,11.34
2019-05-17T04:37:13.070Z,11.67
2019-05-17T04:38:12.789Z,12.15
2019-05-17T04:39:13.359Z,12.60
2019-05-17T04:40:14.102Z,12.95
2019-05-17T04:41:13.324Z,13.12
2019-05-17T04:42:13.534Z,13.14
2019-05-17T04:43:13.539Z,13.11
2019-05-17T04:44:12.819Z,12.93
2019-05-17T04:45:12.735Z,12.62
2019-05-17T04:46:12.927Z,12.13
2019-05-17T04:47:13.349Z,11.70
2019-05-17T04:48:13.192Z,11.31
2019-05-17T04:49:13.774Z,11.09
2019-05-17T04:50:13.587Z,10.96
2019-05-17T04:51:13.189Z,10.89
2019-05-17T04:52:13.718Z,10.76
2019-05-17T04:53:13.335Z,10.84
2019-05-17T04:54:13.667Z,10.94
2019-05-17T04:55:13.269Z,11.01
2019-05-17T04:56:13.961Z,11.20
2019-05-17T04:57:13.088Z,11.67
2019-05-17T04:58:13.685Z,11.89
2019-05-17T04:59:13.836Z,11.97
2019-05-17T05:00:12.915Z,12.20
2019-05-17T05:01:13.289Z,12.31
2019-05-17T05:02:13.168Z,12.54
2019-05-17T05:03:12.720Z,12.64
2019-05-17T05:04:15.129Z,12.84
2019-05-17T05:05:13.457Z,12.56
2019-05-17T05:06:13.321Z,12.38
2019-05-17T05:07:13.731Z,12.30
2019-05-17T05:08:13.025Z,12.30
2019-05-17T05:09:12.721Z,12.44
2019-05-17T05:10:13.549Z,12.69
2019-05-17T05:11:12.666Z,12.87
2019-05-17T05:12:12.469Z,13.18
2019-05-17T05:13:13.338Z,13.47
2019-05-17T05:14:12.774Z,13.76
2019-05-17T05:15:12.224Z,13.96
2019-05-17T05:16:13.449Z,14.06
2019-05-17T05:17:12.813Z,14.04
2019-05-17T05:18:13.307Z,13.92
2019-05-17T05:19:13.008Z,13.84
2019-05-17T05:20:13.124Z,13.73
2019-05-17T05:21:12.193Z,13.58
2019-05-17T05:22:13.541Z,13.47
2019-05-17T05:23:12.973Z,13.25
2019-05-17T05:24:11.707Z,13.12
2019-05-17T05:25:12.421Z,12.88
2019-05-17T05:26:12.061Z,12.71
2019-05-17T05:27:11.699Z,12.71
2019-05-17T05:28:11.555Z,12.95
2019-05-17T05:29:12.748Z,13.00
2019-05-17T05:30:12.114Z,12.93
2019-05-17T05:31:13.269Z,12.96
2019-05-17T05:32:11.901Z,13.09
2019-05-17T05:33:12.870Z,13.11
2019-05-17T05:34:12.309Z,12.93
2019-05-17T05:35:12.336Z,12.93
2019-05-17T05:36:11.472Z,12.87
2019-05-17T05:37:12.536Z,12.71
2019-05-17T05:38:13.018Z,12.62
2019-05-17T05:39:11.731Z,12.66
2019-05-17T05:40:12.676Z,12.64
2019-05-17T05:41:12.206Z,12.95
2019-05-17T05:42:13.818Z,13.40
2019-05-17T05:43:11.946Z,13.73
2019-05-17T05:44:12.257Z,13.83
2019-05-17T05:45:12.122Z,14.19
2019-05-17T05:46:11.757Z,14.19
2019-05-17T05:47:11.600Z,14.44
2019-05-17T05:48:12.920Z,15.27
2019-05-17T05:49:12.433Z,16.30
2019-05-17T05:50:12.481Z,16.95
2019-05-17T05:51:13.587Z,17.87
2019-05-17T05:52:12.567Z,18.34
2019-05-17T05:53:12.873Z,18.50
2019-05-17T05:54:12.296Z,19.06
2019-05-17T05:55:12.217Z,19.61
2019-05-17T05:56:13.270Z,20.15
2019-05-17T05:57:12.596Z,20.53
2019-05-17T05:58:12.092Z,20.84
2019-05-17T05:59:12.092Z,21.13
2019-05-17T06:00:12.723Z,21.50
2019-05-17T06:01:12.719Z,21.82
2019-05-17T06:02:12.329Z,21.75
2019-05-17T06:03:12.068Z,21.51
2019-05-17T06:04:11.776Z,21.36
2019-05-17T06:05:14.671Z,21.35
2019-05-17T06:06:12.451Z,21.59
2019-05-17T06:07:12.893Z,21.67
2019-05-17T06:08:12.342Z,21.91
2019-05-17T06:09:12.070Z,22.25
2019-05-17T06:10:12.914Z,22.50
2019-05-17T06:11:12.263Z,22.89
2019-05-17T06:12:22.903Z,23.19
2019-05-17T06:13:13.143Z,23.52
2019-05-17T06:14:12.247Z,23.45
2019-05-17T06:15:12.612Z,23.47
2019-05-17T06:16:11.944Z,23.72
2019-05-17T06:17:12.606Z,23.79
2019-05-17T06:18:12.151Z,23.89
2019-05-17T06:19:11.686Z,23.94
2019-05-17T06:20:11.733Z,23.90
2019-05-17T06:21:12.213Z,24.13
2019-05-17T06:22:11.972Z,24.34
2019-05-17T06:23:12.329Z,24.29
2019-05-17T06:24:11.896Z,24.29
2019-05-17T06:25:14.742Z,24.05
2019-05-17T06:26:12.480Z,24.07
2019-05-17T06:27:12.375Z,23.90
2019-05-17T06:28:11.522Z,23.86
2019-05-17T06:29:11.802Z,23.71
2019-05-17T06:30:12.534Z,23.62
2019-05-17T06:31:10.768Z,23.14
2019-05-17T06:32:11.895Z,23.11
2019-05-17T06:33:11.994Z,23.17
2019-05-17T06:34:11.769Z,23.08
2019-05-17T06:35:12.589Z,23.38
2019-05-17T06:36:13.172Z,23.14
2019-05-17T06:37:12.944Z,23.45
2019-05-17T06:38:12.088Z,23.60
2019-05-17T06:39:11.726Z,23.67
2019-05-17T06:40:13.127Z,23.52
2019-05-17T06:41:12.609Z,22.71
2019-05-17T06:42:12.053Z,22.52
2019-05-17T06:43:13.110Z,22.68
2019-05-17T06:44:12.250Z,23.02
2019-05-17T06:45:12.489Z,23.35
2019-05-17T06:46:12.370Z,23.52
2019-05-17T06:47:11.979Z,23.72
2019-05-17T06:48:11.672Z,23.82
2019-05-17T06:49:11.753Z,23.90
2019-05-17T06:50:10.588Z,24.04
2019-05-17T06:51:11.841Z,23.90
2019-05-17T06:52:11.651Z,23.89
2019-05-17T06:53:12.310Z,24.13
2019-05-17T06:54:12.032Z,23.34
2019-05-17T06:55:12.742Z,23.39
2019-05-17T06:56:12.769Z,23.34
2019-05-17T06:57:12.625Z,23.15
2019-05-17T06:58:11.800Z,22.54
2019-05-17T06:59:10.485Z,22.10
2019-05-17T07:00:13.921Z,21.98
2019-05-17T07:01:11.472Z,22.12
2019-05-17T07:02:10.535Z,22.22
2019-05-17T07:03:10.447Z,22.41
2019-05-17T07:04:10.435Z,22.46
2019-05-17T07:05:10.441Z,22.44
2019-05-17T07:06:10.970Z,22.49
2019-05-17T07:07:10.915Z,22.65
2019-05-17T07:08:10.994Z,22.65
2019-05-17T07:09:10.384Z,22.67
2019-05-17T07:10:11.154Z,22.43
2019-05-17T07:11:10.369Z,22.38
2019-05-17T07:12:10.566Z,22.35
2019-05-17T07:13:10.861Z,21.74
2019-05-17T07:14:10.329Z,21.34
2019-05-17T07:15:10.830Z,21.23
2019-05-17T07:16:10.373Z,21.21
2019-05-17T07:17:10.296Z,20.54
2019-05-17T07:18:10.592Z,19.88
2019-05-17T07:19:10.520Z,19.51
2019-05-17T07:20:10.743Z,19.63
2019-05-17T07:21:10.269Z,19.75
2019-05-17T07:22:10.244Z,19.39
2019-05-17T07:23:10.843Z,19.01
2019-05-17T07:24:10.257Z,19.01
2019-05-17T07:25:10.993Z,19.15
2019-05-17T07:26:12.005Z,19.20
2019-05-17T07:27:10.191Z,19.23
2019-05-17T07:28:10.433Z,19.29
2019-05-17T07:29:10.249Z,19.08
2019-05-17T07:30:10.158Z,18.91
2019-05-17T07:31:10.277Z,18.72
2019-05-17T07:32:10.136Z,18.95
2019-05-17T07:33:10.463Z,19.08
2019-05-17T07:34:10.114Z,18.99
2019-05-17T07:35:11.050Z,19.20
2019-05-17T07:36:10.318Z,19.32
2019-05-17T07:37:10.659Z,19.39
2019-05-17T07:38:10.835Z,19.60
2019-05-17T07:39:10.735Z,19.98
2019-05-17T07:40:10.951Z,20.23
2019-05-17T07:41:10.252Z,20.00
2019-05-17T07:42:10.026Z,19.98
2019-05-17T07:43:13.866Z,19.91
2019-05-17T07:44:10.121Z,19.84
2019-05-17T07:45:10.418Z,19.84
2019-05-17T07:46:09.996Z,19.60
2019-05-17T07:47:09.977Z,19.54
2019-05-17T07:48:10.110Z,19.53
2019-05-17T07:49:10.855Z,19.47
2019-05-17T07:50:11.204Z,19.47
2019-05-17T07:51:10.177Z,19.48
2019-05-17T07:52:10.287Z,19.55
2019-05-17T07:53:10.510Z,19.55
2019-05-17T07:54:10.424Z,19.47
2019-05-17T07:55:10.839Z,19.06
2019-05-17T07:56:10.340Z,18.58
2019-05-17T07:57:10.448Z,18.55
2019-05-17T07:58:10.232Z,18.82
2019-05-17T07:59:09.847Z,18.99
2019-05-17T08:00:10.314Z,18.99
2019-05-17T08:01:10.162Z,18.92
2019-05-17T08:02:10.597Z,19.14
2019-05-17T08:03:12.724Z,19.21
2019-05-17T08:04:10.051Z,19.35
2019-05-17T08:05:10.180Z,19.35
2019-05-17T08:06:10.578Z,19.39
2019-05-17T08:07:10.888Z,19.39
2019-05-17T08:08:09.932Z,19.42
2019-05-17T08:09:13.906Z,19.23
2019-05-17T08:10:10.967Z,18.77
2019-05-17T08:11:10.617Z,18.31
2019-05-17T08:12:11.030Z,17.79
2019-05-17T08:13:25.101Z,17.63
2019-05-17T08:14:10.709Z,17.76
2019-05-17T08:15:10.757Z,18.02
2019-05-17T08:16:10.349Z,18.21
2019-05-17T08:17:10.238Z,18.34
2019-05-17T08:18:10.875Z,18.50
2019-05-17T08:19:09.848Z,18.49
2019-05-17T08:20:10.246Z,18.17
2019-05-17T08:21:10.386Z,17.79
2019-05-17T08:22:09.850Z,17.74
2019-05-17T08:23:10.470Z,17.84
2019-05-17T08:24:10.403Z,17.84
2019-05-17T08:25:10.357Z,18.00
2019-05-17T08:26:10.687Z,18.27
2019-05-17T08:27:10.381Z,18.39
2019-05-17T08:28:11.056Z,18.44
2019-05-17T08:29:10.018Z,18.55
2019-05-17T08:30:10.414Z,18.72
2019-05-17T08:31:09.988Z,18.84
2019-05-17T08:32:09.663Z,19.05
2019-05-17T08:33:10.923Z,19.01
2019-05-17T08:34:10.391Z,19.15
2019-05-17T08:35:11.143Z,19.21
2019-05-17T08:36:09.443Z,19.36
2019-05-17T08:37:09.583Z,19.60
2019-05-17T08:38:10.223Z,19.65
2019-05-17T08:39:10.258Z,19.40
2019-05-17T08:40:10.705Z,19.29
2019-05-17T08:41:10.564Z,19.32
2019-05-17T08:42:09.856Z,19.40
2019-05-17T08:43:09.922Z,19.38
2019-05-17T08:44:10.053Z,18.82
2019-05-17T08:45:09.802Z,18.42
2019-05-17T08:46:10.492Z,17.99
2019-05-17T08:47:10.241Z,17.81
2019-05-17T08:48:09.645Z,17.85
2019-05-17T08:49:09.767Z,17.64
2019-05-17T08:50:11.279Z,17.78
2019-05-17T08:51:10.766Z,18.09
2019-05-17T08:52:09.924Z,18.43
2019-05-17T08:53:10.621Z,18.64
2019-05-17T08:54:10.327Z,18.70
2019-05-17T08:55:09.821Z,18.68
2019-05-17T08:56:10.005Z,18.44
2019-05-17T08:57:09.624Z,18.62
2019-05-17T08:58:10.300Z,18.59
2019-05-17T08:59:09.710Z,18.68
2019-05-17T09:00:10.605Z,18.59
2019-05-17T09:01:11.150Z,18.80
2019-05-17T09:02:10.840Z,18.82
2019-05-17T09:03:10.645Z,18.84
2019-05-17T09:04:09.331Z,18.94
2019-05-17T09:05:09.836Z,19.20
2019-05-17T09:06:12.308Z,18.74
2019-05-17T09:07:09.498Z,18.47
2019-05-17T09:08:10.499Z,18.68
2019-05-17T09:09:09.990Z,18.67
2019-05-17T09:10:09.945Z,18.94
2019-05-17T09:11:09.949Z,19.14
2019-05-17T09:12:11.056Z,19.20
2019-05-17T09:13:12.523Z,19.17
2019-05-17T09:14:10.602Z,19.39
2019-05-17T09:15:10.087Z,19.46
2019-05-17T09:16:10.768Z,19.50
2019-05-17T09:17:10.263Z,19.58
2019-05-17T09:18:09.905Z,19.70
2019-05-17T09:19:10.122Z,19.83
2019-05-17T09:20:10.658Z,19.88
2019-05-17T09:21:09.731Z,19.86
2019-05-17T09:22:10.527Z,19.78
2019-05-17T09:23:09.665Z,19.83
2019-05-17T09:24:10.403Z,19.80
2019-05-17T09:25:13.601Z,19.57
2019-05-17T09:26:10.155Z,19.65
2019-05-17T09:27:10.103Z,19.83
2019-05-17T09:28:10.181Z,19.94
2019-05-17T09:29:10.815Z,20.13
2019-05-17T09:30:09.448Z,20.23
2019-05-17T09:31:10.399Z,20.08
2019-05-17T09:32:09.560Z,20.28
2019-05-17T09:33:11.006Z,20.43
2019-05-17T09:34:09.670Z,20.54
2019-05-17T09:35:10.138Z,20.71
2019-05-17T09:36:10.104Z,20.72
2019-05-17T09:37:09.883Z,20.74
2019-05-17T09:38:10.016Z,20.54
2019-05-17T09:39:09.492Z,20.35
2019-05-17T09:40:09.343Z,20.27
2019-05-17T09:41:09.325Z,20.28
2019-05-17T09:42:10.404Z,20.23
2019-05-17T09:43:10.144Z,19.90
2019-05-17T09:44:15.628Z,19.58
2019-05-17T09:45:09.892Z,19.40
2019-05-17T09:46:10.644Z,19.20
2019-05-17T09:47:10.133Z,19.08
2019-05-17T09:48:10.259Z,19.21
2019-05-17T09:49:10.420Z,19.39
2019-05-17T09:50:09.969Z,19.73
2019-05-17T09:51:10.456Z,19.80
2019-05-17T09:52:09.572Z,19.91
2019-05-17T09:53:10.737Z,20.31
2019-05-17T09:54:10.241Z,20.53
2019-05-17T09:55:09.903Z,20.62
2019-05-17T09:56:09.916Z,20.61
2019-05-17T09:57:09.874Z,20.76
2019-05-17T09:58:09.944Z,20.33
2019-05-17T09:59:09.969Z,19.90
2019-05-17T10:00:09.899Z,20.13
2019-05-17T10:01:09.477Z,20.13
2019-05-17T10:02:09.494Z,20.05
2019-05-17T10:03:09.886Z,20.09
2019-05-17T10:04:12.926Z,20.28
2019-05-17T10:05:10.759Z,20.49
2019-05-17T10:06:09.693Z,20.76
2019-05-17T10:07:10.223Z,21.02
2019-05-17T10:08:10.775Z,21.13
2019-05-17T10:09:09.563Z,21.16
2019-05-17T10:10:10.536Z,20.71
2019-05-17T10:11:11.464Z,20.34
2019-05-17T10:12:09.518Z,20.12
2019-05-17T10:13:09.817Z,19.79
2019-05-17T10:14:11.430Z,19.58
2019-05-17T10:15:09.984Z,19.25
2019-05-17T10:16:10.123Z,19.05
2019-05-17T10:17:09.838Z,18.94
2019-05-17T10:18:10.771Z,18.74
2019-05-17T10:19:09.594Z,18.68
2019-05-17T10:20:10.516Z,18.72
2019-05-17T10:21:10.304Z,18.92
2019-05-17T10:22:10.426Z,19.08
2019-05-17T10:23:10.586Z,19.06
2019-05-17T10:24:09.592Z,19.14
2019-05-17T10:25:09.698Z,19.21
2019-05-17T10:26:10.262Z,19.33
2019-05-17T10:27:10.996Z,19.50
2019-05-17T10:28:10.035Z,19.55
2019-05-17T10:29:09.978Z,19.35
2019-05-17T10:30:10.359Z,19.29
2019-05-17T10:31:11.283Z,19.11
2019-05-17T10:32:10.348Z,19.29
2019-05-17T10:33:09.906Z,19.39
2019-05-17T10:34:09.610Z,19.42
2019-05-17T10:35:08.153Z,19.46
2019-05-17T10:36:08.144Z,19.53
2019-05-17T10:37:10.290Z,19.55
2019-05-17T10:38:10.384Z,19.57
2019-05-17T10:39:09.905Z,19.57
2019-05-17T10:40:10.077Z,19.20
2019-05-17T10:41:10.108Z,18.91
2019-05-17T10:42:10.030Z,19.01
2019-05-17T10:43:10.022Z,19.11
2019-05-17T10:44:09.470Z,19.02
2019-05-17T10:45:10.580Z,18.84
2019-05-17T10:46:10.352Z,18.68
2019-05-17T10:47:10.075Z,18.68
2019-05-17T10:48:10.231Z,18.68
2019-05-17T10:49:08.011Z,18.80
2019-05-17T10:50:10.174Z,18.97
2019-05-17T10:51:09.681Z,19.17
2019-05-17T10:52:09.477Z,19.23
2019-05-17T10:53:10.052Z,19.06
2019-05-17T10:54:09.629Z,18.76
2019-05-17T10:55:10.404Z,18.64
2019-05-17T10:56:10.033Z,18.70
2019-05-17T10:57:10.263Z,18.77
2019-05-17T10:58:09.949Z,18.97
2019-05-17T10:59:09.853Z,19.06
2019-05-17T11:00:09.972Z,19.18
2019-05-17T11:01:10.156Z,19.32
2019-05-17T11:02:09.787Z,19.21
2019-05-17T11:03:09.757Z,19.21
2019-05-17T11:04:10.281Z,19.40
2019-05-17T11:05:10.379Z,19.50
2019-05-17T11:06:10.703Z,19.63
2019-05-17T11:07:10.278Z,19.68
2019-05-17T11:08:10.306Z,19.68
2019-05-17T11:09:10.069Z,19.33
2019-05-17T11:10:11.221Z,19.36
2019-05-17T11:11:10.050Z,19.42
2019-05-17T11:12:07.795Z,19.51
2019-05-17T11:13:07.738Z,19.57
2019-05-17T11:14:07.734Z,19.57
2019-05-17T11:15:11.656Z,19.54
2019-05-17T11:16:07.703Z,19.35
2019-05-17T11:17:07.694Z,19.14
2019-05-17T11:18:07.685Z,19.31
2019-05-17T11:19:08.889Z,19.38
2019-05-17T11:20:07.661Z,19.39
2019-05-17T11:21:07.653Z,19.24
2019-05-17T11:22:07.639Z,19.39
2019-05-17T11:23:07.636Z,19.54
2019-05-17T11:24:07.628Z,19.61
2019-05-17T11:25:07.622Z,19.78
2019-05-17T11:26:07.597Z,19.87
2019-05-17T11:27:07.583Z,19.78
2019-05-17T11:28:07.574Z,19.80
2019-05-17T11:29:07.739Z,19.79
2019-05-17T11:30:07.550Z,19.55
2019-05-17T11:31:07.541Z,19.36
2019-05-17T11:32:07.529Z,19.36
2019-05-17T11:33:07.519Z,19.39
2019-05-17T11:34:07.508Z,19.55
2019-05-17T11:35:07.567Z,19.79
2019-05-17T11:36:07.487Z,19.79
2019-05-17T11:37:07.475Z,19.88
2019-05-17T11:38:07.470Z,19.91
2019-05-17T11:39:07.457Z,20.02
2019-05-17T11:40:08.246Z,20.24
2019-05-17T11:41:20.638Z,20.23
2019-05-17T11:42:08.418Z,20.31
2019-05-17T11:43:07.412Z,20.30
2019-05-17T11:44:07.400Z,20.27
2019-05-17T11:45:07.430Z,20.23
2019-05-17T11:46:07.380Z,20.02
2019-05-17T11:47:07.373Z,20.10
2019-05-17T11:48:07.357Z,19.98
2019-05-17T11:49:07.348Z,19.87
2019-05-17T11:50:07.345Z,19.88
2019-05-17T11:51:07.325Z,19.93
2019-05-17T11:52:07.318Z,19.87
2019-05-17T11:53:07.310Z,19.65
2019-05-17T11:54:07.294Z,19.55
2019-05-17T11:55:07.290Z,19.51
2019-05-17T11:56:07.273Z,19.60
2019-05-17T11:57:07.265Z,19.98
2019-05-17T11:58:07.252Z,20.42
2019-05-17T11:59:07.242Z,20.69
2019-05-17T12:00:07.238Z,20.58
2019-05-17T12:01:07.219Z,20.46
2019-05-17T12:02:07.210Z,20.35
2019-05-17T12:03:07.203Z,20.46
2019-05-17T12:04:07.187Z,20.53
2019-05-17T12:05:07.189Z,20.76
2019-05-17T12:06:07.166Z,20.87
2019-05-17T12:07:07.156Z,20.93
2019-05-17T12:08:08.822Z,21.01
2019-05-17T12:09:07.135Z,21.01
2019-05-17T12:10:07.135Z,20.80
2019-05-17T12:11:07.114Z,20.51
2019-05-17T12:12:07.102Z,20.31
2019-05-17T12:13:07.090Z,20.24
2019-05-17T12:14:07.081Z,20.30
2019-05-17T12:15:07.084Z,20.16
2019-05-17T12:16:07.063Z,20.34
2019-05-17T12:17:07.049Z,20.54
2019-05-17T12:18:07.039Z,20.74
2019-05-17T12:19:07.028Z,20.89
2019-05-17T12:20:07.028Z,21.13
2019-05-17T12:21:07.008Z,21.32
2019-05-17T12:22:07.000Z,21.63
2019-05-17T12:23:06.984Z,21.74
2019-05-17T12:24:06.974Z,21.94
2019-05-17T12:25:06.978Z,21.95
2019-05-17T12:26:06.952Z,21.42
2019-05-17T12:27:06.945Z,21.02
2019-05-17T12:28:06.937Z,21.05
2019-05-17T12:29:06.921Z,21.24
2019-05-17T12:30:06.960Z,21.50
2019-05-17T12:31:06.900Z,21.53
2019-05-17T12:32:06.890Z,21.51
2019-05-17T12:33:06.878Z,21.46
2019-05-17T12:34:06.865Z,21.34
2019-05-17T12:35:06.867Z,21.02
2019-05-17T12:36:06.841Z,20.54
2019-05-17T12:37:06.831Z,20.49
2019-05-17T12:38:06.825Z,20.56
2019-05-17T12:39:06.811Z,20.49
2019-05-17T12:40:06.807Z,20.42
2019-05-17T12:41:06.791Z,20.53
2019-05-17T12:42:06.792Z,20.56
2019-05-17T12:43:06.768Z,20.58
2019-05-17T12:44:06.757Z,20.47
2019-05-17T12:45:06.761Z,20.25
2019-05-17T12:46:06.734Z,20.00
2019-05-17T12:47:06.724Z,19.93
2019-05-17T12:48:06.721Z,19.90
2019-05-17T12:49:06.704Z,20.09
2019-05-17T12:50:06.692Z,20.06
2019-05-17T12:51:06.689Z,20.25
2019-05-17T12:52:06.671Z,20.23
2019-05-17T12:53:06.663Z,20.41
2019-05-17T12:54:06.649Z,20.31
2019-05-17T12:55:06.639Z,20.38
2019-05-17T12:56:06.637Z,20.38
2019-05-17T12:57:06.634Z,20.23
2019-05-17T12:58:06.611Z,20.24
2019-05-17T12:59:06.601Z,20.27
2019-05-17T13:00:06.586Z,20.24
2019-05-17T13:01:06.585Z,20.21